createdAt,value
2022-07-30T00:00:28.203Z,99421.28
2022-07-30T00:02:56.398Z,99425.38
2022-07-30T00:05:26.253Z,99419.84
2022-07-30T00:07:54.368Z,99413.97
2022-07-30T00:10:23.441Z,99407.75
2022-07-30T00:12:51.862Z,99418.53
2022-07-30T00:15:20.071Z,99420.25
2022-07-30T00:17:49.318Z,99413.53
2022-07-30T00:20:18.624Z,99414.72
2022-07-30T00:22:48.401Z,99416.50
2022-07-30T00:25:19.147Z,99413.41
2022-07-30T00:27:47.603Z,99414.97
2022-07-30T00:30:16.591Z,99410.31
2022-07-30T00:32:45.644Z,99412.53
2022-07-30T00:35:14.471Z,99404.41
2022-07-30T00:37:42.694Z,99412.41
2022-07-30T00:40:12.611Z,99408.63
2022-07-30T00:42:42.640Z,99404.00
2022-07-30T00:45:12.462Z,99404.53
2022-07-30T00:47:41.261Z,99404.75
2022-07-30T00:50:12.154Z,99405.09
2022-07-30T00:52:41.175Z,99402.00
2022-07-30T00:55:14.138Z,99403.00
2022-07-30T00:57:43.932Z,99413.38
2022-07-30T01:00:16.103Z,99400.97
2022-07-30T01:02:44.952Z,99397.97
2022-07-30T01:05:13.405Z,99397.59
2022-07-30T01:07:41.763Z,99392.53
2022-07-30T01:10:14.026Z,99395.06
2022-07-30T01:12:43.478Z,99396.81
2022-07-30T01:15:12.874Z,99399.34
2022-07-30T01:17:41.133Z,99396.66
2022-07-30T01:20:12.651Z,99393.13
2022-07-30T01:22:56.747Z,99394.00
2022-07-30T01:25:54.540Z,99401.06
2022-07-30T01:28:27.751Z,99399.19
2022-07-30T01:30:57.615Z,99402.84
2022-07-30T01:33:27.858Z,99400.19
2022-07-30T01:35:58.751Z,99401.06
2022-07-30T01:38:34.991Z,99401.06
2022-07-30T01:41:06.480Z,99392.66
2022-07-30T01:43:37.584Z,99393.66
2022-07-30T01:46:07.274Z,99396.66
2022-07-30T01:48:38.332Z,99395.53
2022-07-30T01:51:07.933Z,99386.72
2022-07-30T01:53:39.682Z,99385.75
2022-07-30T01:56:11.500Z,99391.38
2022-07-30T01:58:41.790Z,99383.63
2022-07-30T02:01:10.107Z,99391.34
2022-07-30T02:03:39.143Z,99388.97
2022-07-30T02:06:12.376Z,99389.94
2022-07-30T02:08:43.056Z,99396.78
2022-07-30T02:11:16.561Z,99397.22
2022-07-30T02:13:51.815Z,99393.44
2022-07-30T02:16:28.736Z,99392.97
2022-07-30T02:19:06.190Z,99398.09
2022-07-30T02:21:40.060Z,99395.06
2022-07-30T02:24:27.108Z,99393.50
2022-07-30T02:27:00.984Z,99390.84
2022-07-30T02:29:33.930Z,99389.66
2022-07-30T02:32:06.246Z,99389.66
2022-07-30T02:34:38.521Z,99383.94
2022-07-30T02:37:08.674Z,99388.44
2022-07-30T02:39:38.741Z,99386.69
2022-07-30T02:42:11.218Z,99390.84
2022-07-30T02:44:41.948Z,99394.13
2022-07-30T02:47:11.993Z,99390.94
2022-07-30T02:49:41.871Z,99385.16
2022-07-30T02:52:13.716Z,99385.16
2022-07-30T02:54:44.320Z,99380.94
2022-07-30T02:57:16.186Z,99382.56
2022-07-30T02:59:45.956Z,99382.50
2022-07-30T03:02:16.303Z,99380.41
2022-07-30T03:04:45.971Z,99378.00
2022-07-30T03:07:18.390Z,99378.63
2022-07-30T03:09:50.983Z,99366.09
2022-07-30T03:12:24.670Z,99373.88
2022-07-30T03:14:54.023Z,99371.50
2022-07-30T03:17:25.200Z,99361.94
2022-07-30T03:19:56.240Z,99361.84
2022-07-30T03:22:30.056Z,99362.22
2022-07-30T03:25:03.155Z,99367.22
2022-07-30T03:27:33.974Z,99373.41
2022-07-30T03:30:03.723Z,99373.84
2022-07-30T03:32:33.748Z,99378.50
2022-07-30T03:35:06.402Z,99371.69
2022-07-30T03:37:38.352Z,99373.00
2022-07-30T03:40:08.147Z,99380.25
2022-07-30T03:42:38.296Z,99371.06
2022-07-30T03:45:08.356Z,99382.81
2022-07-30T03:47:42.804Z,99373.38
2022-07-30T03:50:12.795Z,99381.06
2022-07-30T03:52:42.561Z,99385.66
2022-07-30T03:55:13.223Z,99383.25
2022-07-30T03:57:43.002Z,99385.94
2022-07-30T04:00:15.864Z,99389.53
2022-07-30T04:02:44.784Z,99398.34
2022-07-30T04:05:13.301Z,99399.03
2022-07-30T04:07:45.268Z,99401.53
2022-07-30T04:10:14.584Z,99393.25
2022-07-30T04:12:44.695Z,99402.66
2022-07-30T04:16:37.424Z,99398.16
2022-07-30T04:18:06.112Z,99402.47
2022-07-30T04:20:41.202Z,99404.34
2022-07-30T04:23:11.483Z,99404.56
2022-07-30T04:25:41.356Z,99410.31
2022-07-30T04:28:11.852Z,99406.44
2022-07-30T04:30:40.300Z,99404.31
2022-07-30T04:33:09.921Z,99405.94
2022-07-30T04:35:51.557Z,99416.28
2022-07-30T04:38:21.017Z,99412.03
2022-07-30T04:40:49.616Z,99411.59
2022-07-30T04:43:19.161Z,99411.22
2022-07-30T04:45:47.491Z,99410.66
2022-07-30T04:48:15.728Z,99413.47
2022-07-30T04:50:47.237Z,99410.69
2022-07-30T04:53:16.898Z,99406.25
2022-07-30T04:55:48.318Z,99404.44
2022-07-30T04:58:21.307Z,99409.34
2022-07-30T05:00:52.496Z,99409.53
2022-07-30T05:03:22.801Z,99409.72
2022-07-30T05:05:57.279Z,99408.72
2022-07-30T05:08:27.273Z,99414.25
2022-07-30T05:10:56.045Z,99411.19
2022-07-30T05:13:27.524Z,99412.50
2022-07-30T05:16:03.138Z,99406.22
2022-07-30T05:18:31.307Z,99401.91
2022-07-30T05:20:59.393Z,99402.66
2022-07-30T05:23:27.564Z,99417.88
2022-07-30T05:25:55.848Z,99402.47
2022-07-30T05:28:26.771Z,99402.06
2022-07-30T05:30:56.171Z,99410.19
2022-07-30T05:33:40.857Z,99402.78
2022-07-30T05:36:09.723Z,99409.63
2022-07-30T05:38:37.856Z,99408.69
2022-07-30T05:41:05.939Z,99408.69
2022-07-30T05:43:57.003Z,99400.97
2022-07-30T05:46:25.474Z,99399.91
2022-07-30T05:48:53.634Z,99403.44
2022-07-30T05:51:22.455Z,99407.94
2022-07-30T05:53:51.452Z,99403.13
2022-07-30T05:56:19.615Z,99404.84
2022-07-30T05:58:48.114Z,99397.56
2022-07-30T06:01:17.595Z,99398.31
2022-07-30T06:03:45.819Z,99406.22
2022-07-30T06:06:14.330Z,99404.97
2022-07-30T06:08:44.614Z,99411.31
2022-07-30T06:11:13.083Z,99400.22
2022-07-30T06:13:41.256Z,99399.41
2022-07-30T06:16:09.439Z,99404.38
2022-07-30T06:18:38.987Z,99402.97
2022-07-30T06:21:07.359Z,99405.31
2022-07-30T06:23:35.475Z,99402.97
2022-07-30T06:26:03.602Z,99397.22
2022-07-30T06:28:39.645Z,99401.88
2022-07-30T06:31:08.264Z,99406.00
2022-07-30T06:33:36.294Z,99404.31
2022-07-30T06:36:06.006Z,99404.47
2022-07-30T06:38:34.645Z,99417.28
2022-07-30T06:41:04.620Z,99412.03
2022-07-30T06:43:32.877Z,99411.03
2022-07-30T06:46:01.176Z,99413.53
2022-07-30T06:48:32.288Z,99416.19
2022-07-30T06:51:00.415Z,99414.53
2022-07-30T06:53:30.074Z,99413.88
2022-07-30T06:55:58.422Z,99412.22
2022-07-30T06:58:29.360Z,99406.66
2022-07-30T07:00:57.775Z,99396.66
2022-07-30T07:03:40.164Z,99393.25
2022-07-30T07:06:08.823Z,99387.16
2022-07-30T07:08:39.385Z,99379.88
2022-07-30T07:11:07.655Z,99385.47
2022-07-30T07:13:35.724Z,99374.66
2022-07-30T07:16:04.248Z,99386.72
2022-07-30T07:18:45.536Z,99384.88
2022-07-30T07:21:13.655Z,99379.56
2022-07-30T07:23:42.509Z,99382.38
2022-07-30T07:26:12.394Z,99383.28
2022-07-30T07:28:41.413Z,99377.44
2022-07-30T07:31:10.275Z,99372.81
2022-07-30T07:33:39.566Z,99374.84
2022-07-30T07:36:09.321Z,99367.78
2022-07-30T07:38:37.944Z,99375.31
2022-07-30T07:41:06.728Z,99367.03
2022-07-30T07:43:35.218Z,99373.97
2022-07-30T07:46:03.477Z,99373.66
2022-07-30T07:48:31.660Z,99371.06
2022-07-30T07:51:00.721Z,99367.72
2022-07-30T07:53:30.467Z,99374.06
2022-07-30T07:55:59.827Z,99360.38
2022-07-30T07:58:29.499Z,99352.75
2022-07-30T08:00:59.264Z,99350.66
2022-07-30T08:03:27.435Z,99348.66
2022-07-30T08:06:05.494Z,99352.22
2022-07-30T08:08:37.294Z,99355.28
2022-07-30T08:11:07.613Z,99359.81
2022-07-30T08:13:51.520Z,99357.47
2022-07-30T08:16:21.287Z,99353.97
2022-07-30T08:18:49.691Z,99347.56
2022-07-30T08:21:17.888Z,99344.00
2022-07-30T08:23:48.021Z,99341.88
2022-07-30T08:26:16.139Z,99349.19
2022-07-30T08:28:45.846Z,99341.19
2022-07-30T08:31:14.485Z,99340.84
2022-07-30T08:33:42.605Z,99335.94
2022-07-30T08:36:10.735Z,99340.44
2022-07-30T08:38:39.907Z,99340.94
2022-07-30T08:41:10.218Z,99324.34
2022-07-30T08:43:38.647Z,99329.47
2022-07-30T08:46:11.203Z,99322.56
2022-07-30T08:48:40.452Z,99333.97
2022-07-30T08:51:09.033Z,99334.19
2022-07-30T08:53:37.354Z,99325.13
2022-07-30T08:56:07.788Z,99327.28
2022-07-30T08:58:38.399Z,99316.44
2022-07-30T09:01:07.676Z,99321.41
2022-07-30T09:03:44.070Z,99312.63
2022-07-30T09:06:13.347Z,99307.56
2022-07-30T09:08:42.225Z,99305.66
2022-07-30T09:11:10.341Z,99299.09
2022-07-30T09:13:41.825Z,99294.63
2022-07-30T09:16:21.677Z,99288.75
2022-07-30T09:18:50.574Z,99288.38
2022-07-30T09:21:22.356Z,99289.88
2022-07-30T09:23:58.035Z,99282.69
2022-07-30T09:26:26.718Z,99269.38
2022-07-30T09:28:57.120Z,99268.78
2022-07-30T09:31:25.316Z,99268.50
2022-07-30T09:33:53.470Z,99263.25
2022-07-30T09:36:22.197Z,99254.81
2022-07-30T09:38:51.992Z,99260.25
2022-07-30T09:41:39.339Z,99255.06
2022-07-30T09:44:09.609Z,99254.50
2022-07-30T09:46:47.299Z,99251.31
2022-07-30T09:49:17.085Z,99254.81
2022-07-30T09:51:56.100Z,99251.47
2022-07-30T09:54:50.721Z,99249.91
2022-07-30T09:57:26.422Z,99247.16
2022-07-30T09:59:59.988Z,99243.91
2022-07-30T10:02:32.997Z,99241.84
2022-07-30T10:05:14.324Z,99239.38
2022-07-30T10:07:51.120Z,99245.56
2022-07-30T10:10:25.670Z,99242.06
2022-07-30T10:12:58.319Z,99228.03
2022-07-30T10:15:30.941Z,99229.03
2022-07-30T10:18:02.180Z,99218.38
2022-07-30T10:20:35.373Z,99224.19
2022-07-30T10:23:08.316Z,99226.28
2022-07-30T10:25:49.496Z,99210.28
2022-07-30T10:28:23.180Z,99217.47
2022-07-30T10:30:55.363Z,99210.66
2022-07-30T10:33:35.262Z,99218.41
2022-07-30T10:36:06.374Z,99206.94
2022-07-30T10:38:41.627Z,99196.75
2022-07-30T10:41:22.121Z,99194.19
2022-07-30T10:44:24.892Z,99196.50
2022-07-30T10:47:07.173Z,99188.59
2022-07-30T10:49:41.187Z,99182.72
2022-07-30T10:52:12.736Z,99178.38
2022-07-30T10:54:44.585Z,99188.03
2022-07-30T10:57:22.636Z,99176.34
2022-07-30T11:00:13.872Z,99168.47
2022-07-30T11:03:18.216Z,99161.03
2022-07-30T11:05:50.225Z,99150.84
2022-07-30T11:08:35.862Z,99153.31
2022-07-30T11:11:19.750Z,99152.09
2022-07-30T11:13:53.603Z,99155.41
2022-07-30T11:16:23.955Z,99142.59
2022-07-30T11:19:55.865Z,99140.28
2022-07-30T11:22:29.699Z,99145.56
2022-07-30T11:24:59.435Z,99145.84
2022-07-30T11:27:41.274Z,99138.50
2022-07-30T11:30:35.986Z,99128.09
2022-07-30T11:33:33.141Z,99125.56
2022-07-30T11:36:11.929Z,99118.88
2022-07-30T11:39:05.317Z,99120.34
2022-07-30T11:41:35.559Z,99104.72
2022-07-30T11:44:31.843Z,99092.41
2022-07-30T11:47:00.467Z,99085.88
2022-07-30T11:49:36.861Z,99085.19
2022-07-30T11:52:07.399Z,99080.63
2022-07-30T11:54:54.494Z,99087.56
2022-07-30T11:57:40.271Z,99085.22
2022-07-30T12:00:09.934Z,99075.16
2022-07-30T12:02:38.171Z,99073.97
2022-07-30T12:05:08.055Z,99070.22
2022-07-30T12:07:37.835Z,99074.25
2022-07-30T12:10:17.202Z,99074.59
2022-07-30T12:13:07.900Z,99075.56
2022-07-30T12:15:37.796Z,99065.78
2022-07-30T12:18:24.555Z,99064.97
2022-07-30T12:20:59.573Z,99055.47
2022-07-30T12:23:30.029Z,99053.16
2022-07-30T12:25:59.627Z,99047.34
2022-07-30T12:28:31.215Z,99053.03
2022-07-30T12:31:00.346Z,99045.53
2022-07-30T12:33:28.537Z,99055.03
2022-07-30T12:35:58.432Z,99044.09
2022-07-30T12:38:29.038Z,99047.31
2022-07-30T12:40:59.906Z,99041.25
2022-07-30T12:43:49.049Z,99021.84
2022-07-30T12:46:19.261Z,99025.22
2022-07-30T12:48:51.996Z,99018.47
2022-07-30T12:51:21.078Z,99012.53
2022-07-30T12:53:51.175Z,99010.47
2022-07-30T12:56:20.853Z,99010.75
2022-07-30T12:58:48.980Z,99002.69
2022-07-30T13:01:19.184Z,99003.63
2022-07-30T13:03:48.332Z,98995.38
2022-07-30T13:06:18.450Z,98989.97
2022-07-30T13:08:49.193Z,98986.28
2022-07-30T13:11:19.448Z,98978.44
2022-07-30T13:13:47.666Z,98971.09
2022-07-30T13:16:16.312Z,98962.16
2022-07-30T13:18:44.667Z,98960.59
2022-07-30T13:21:12.959Z,98953.25
2022-07-30T13:23:42.262Z,98950.59
2022-07-30T13:26:12.374Z,98939.72
2022-07-30T13:28:42.070Z,98949.75
2022-07-30T13:31:11.195Z,98946.28
2022-07-30T13:33:40.325Z,98938.66
2022-07-30T13:36:09.285Z,98939.56
2022-07-30T13:38:37.812Z,98941.25
2022-07-30T13:41:06.573Z,98934.84
2022-07-30T13:43:34.810Z,98931.69
2022-07-30T13:46:04.887Z,98927.59
2022-07-30T13:48:33.713Z,98928.16
2022-07-30T13:51:03.029Z,98920.53
2022-07-30T13:53:31.397Z,98921.06
2022-07-30T13:56:00.240Z,98918.78
2022-07-30T13:58:31.808Z,98910.34
2022-07-30T14:01:07.555Z,98908.78
2022-07-30T14:03:35.904Z,98904.41
2022-07-30T14:06:10.570Z,98902.44
2022-07-30T14:08:39.404Z,98898.41
2022-07-30T14:11:07.614Z,98894.06
2022-07-30T14:13:35.769Z,98892.84
2022-07-30T14:16:13.824Z,98889.75
2022-07-30T14:18:51.082Z,98882.06
2022-07-30T14:21:19.319Z,98877.81
2022-07-30T14:23:47.954Z,98881.44
2022-07-30T14:26:16.187Z,98883.28
2022-07-30T14:28:44.532Z,98876.13
2022-07-30T14:31:14.165Z,98866.84
2022-07-30T14:33:42.247Z,98874.16
2022-07-30T14:36:10.559Z,98869.28
2022-07-30T14:38:39.960Z,98869.50
2022-07-30T14:41:08.975Z,98866.97
2022-07-30T14:43:37.169Z,98869.38
2022-07-30T14:46:05.403Z,98866.75
2022-07-30T14:48:34.907Z,98863.81
2022-07-30T14:51:15.206Z,98861.84
2022-07-30T14:53:47.231Z,98855.88
2022-07-30T14:56:17.661Z,98855.28
2022-07-30T14:58:46.150Z,98841.66
2022-07-30T15:01:16.283Z,98844.16
2022-07-30T15:03:46.870Z,98846.16
2022-07-30T15:06:16.142Z,98850.19
2022-07-30T15:08:46.384Z,98842.38
2022-07-30T15:11:14.636Z,98843.94
2022-07-30T15:13:50.124Z,98848.75
2022-07-30T15:16:19.013Z,98842.66
2022-07-30T15:18:49.133Z,98829.66
2022-07-30T15:21:17.948Z,98843.94
2022-07-30T15:23:46.325Z,98834.84
2022-07-30T15:26:14.536Z,98839.50
2022-07-30T15:28:42.694Z,98830.88
2022-07-30T15:31:10.971Z,98831.47
2022-07-30T15:33:42.983Z,98827.81
2022-07-30T15:36:13.265Z,98822.31
2022-07-30T15:38:41.477Z,98825.78
2022-07-30T15:41:13.444Z,98829.59
2022-07-30T15:43:42.035Z,98826.53
2022-07-30T15:46:10.093Z,98828.34
2022-07-30T15:48:38.541Z,98825.44
2022-07-30T15:51:06.770Z,98822.81
2022-07-30T15:53:36.629Z,98829.56
2022-07-30T15:56:05.228Z,98828.31
2022-07-30T15:58:33.874Z,98824.78
2022-07-30T16:01:02.596Z,98816.50
2022-07-30T16:03:30.880Z,98821.78
2022-07-30T16:05:59.204Z,98820.56
2022-07-30T16:08:27.433Z,98818.28
2022-07-30T16:10:57.189Z,98816.97
2022-07-30T16:13:25.546Z,98818.78
2022-07-30T16:15:53.673Z,98805.31
2022-07-30T16:18:21.804Z,98816.66
2022-07-30T16:20:51.120Z,98806.16
2022-07-30T16:23:21.600Z,98810.44
2022-07-30T16:25:50.046Z,98815.13
2022-07-30T16:28:19.690Z,98817.72
2022-07-30T16:30:50.880Z,98815.25
2022-07-30T16:33:20.464Z,98821.03
2022-07-30T16:35:51.022Z,98815.31
2022-07-30T16:38:19.804Z,98813.56
2022-07-30T16:40:48.081Z,98812.69
2022-07-30T16:43:19.838Z,98817.88
2022-07-30T16:45:50.525Z,98817.19
2022-07-30T16:48:19.162Z,98820.44
2022-07-30T16:50:47.592Z,98822.88
2022-07-30T16:53:15.820Z,98827.00
2022-07-30T16:55:44.615Z,98832.72
2022-07-30T16:58:13.062Z,98830.50
2022-07-30T17:00:41.634Z,98830.09
2022-07-30T17:03:11.941Z,98840.69
2022-07-30T17:05:48.244Z,98841.03
2022-07-30T17:08:17.829Z,98853.03
2022-07-30T17:10:46.189Z,98853.59
2022-07-30T17:13:16.101Z,98858.50
2022-07-30T17:15:46.777Z,98861.09
2022-07-30T17:18:17.818Z,98861.41
2022-07-30T17:20:46.815Z,98854.34
2022-07-30T17:23:15.681Z,98865.34
2022-07-30T17:25:43.978Z,98860.78
2022-07-30T17:28:12.687Z,98858.25
2022-07-30T17:30:41.290Z,98855.00
2022-07-30T17:33:09.455Z,98854.03
2022-07-30T17:35:39.065Z,98850.75
2022-07-30T17:38:07.414Z,98853.59
2022-07-30T17:40:35.664Z,98858.72
2022-07-30T17:43:07.752Z,98853.38
2022-07-30T17:45:37.547Z,98853.16
2022-07-30T17:48:06.856Z,98851.91
2022-07-30T17:50:36.347Z,98849.63
2022-07-30T17:53:06.390Z,98852.97
2022-07-30T17:55:35.629Z,98855.50
2022-07-30T17:58:04.537Z,98848.91
2022-07-30T18:00:34.817Z,98853.72
2022-07-30T18:03:03.609Z,98848.41
2022-07-30T18:05:31.886Z,98854.75
2022-07-30T18:08:00.029Z,98863.16
2022-07-30T18:10:29.631Z,98857.56
2022-07-30T18:12:59.551Z,98862.91
2022-07-30T18:15:48.819Z,98861.31
2022-07-30T18:18:17.331Z,98860.06
2022-07-30T18:20:48.094Z,98868.19
2022-07-30T18:23:19.238Z,98872.72
2022-07-30T18:25:51.294Z,98871.69
2022-07-30T18:28:20.480Z,98877.00
2022-07-30T18:30:49.070Z,98869.59
2022-07-30T18:33:17.328Z,98871.63
2022-07-30T18:35:45.992Z,98866.00
2022-07-30T18:38:14.480Z,98872.31
2022-07-30T18:40:42.573Z,98878.38
2022-07-30T18:43:13.233Z,98876.34
2022-07-30T18:45:41.432Z,98881.66
2022-07-30T18:48:09.554Z,98888.25
2022-07-30T18:50:37.757Z,98885.94
2022-07-30T18:53:15.380Z,98885.69
2022-07-30T18:55:44.186Z,98891.25
2022-07-30T18:58:14.101Z,98893.28
2022-07-30T19:00:44.398Z,98894.53
2022-07-30T19:03:17.528Z,98893.50
2022-07-30T19:05:49.855Z,98887.13
2022-07-30T19:08:17.976Z,98895.53
2022-07-30T19:10:46.166Z,98904.19
2022-07-30T19:13:15.940Z,98900.38
2022-07-30T19:15:44.303Z,98911.28
2022-07-30T19:18:12.559Z,98908.50
2022-07-30T19:20:40.751Z,98903.63
2022-07-30T19:23:09.561Z,98903.09
2022-07-30T19:25:39.936Z,98908.91
2022-07-30T19:28:09.066Z,98909.88
2022-07-30T19:30:38.580Z,98916.22
2022-07-30T19:33:13.998Z,98920.75
2022-07-30T19:35:43.444Z,98909.75
2022-07-30T19:38:21.380Z,98914.88
2022-07-30T19:40:50.512Z,98925.53
2022-07-30T19:43:24.051Z,98941.03
2022-07-30T19:45:54.056Z,98940.28
2022-07-30T19:48:28.893Z,98947.59
2022-07-30T19:51:00.895Z,98945.53
2022-07-30T19:53:31.175Z,98960.47
2022-07-30T19:56:08.180Z,98959.22
2022-07-30T19:58:40.097Z,98966.63
2022-07-30T20:01:12.308Z,98965.63
2022-07-30T20:03:40.673Z,98976.00
2022-07-30T20:06:14.710Z,98972.38
2022-07-30T20:08:44.843Z,98969.28
2022-07-30T20:11:21.064Z,98969.22
2022-07-30T20:16:51.051Z,98971.34
2022-07-30T20:19:20.166Z,98974.56
2022-07-30T20:21:56.717Z,98976.13
2022-07-30T20:24:25.694Z,98981.97
2022-07-30T20:26:53.876Z,98984.63
2022-07-30T20:29:22.007Z,98987.25
2022-07-30T20:31:52.165Z,98995.38
2022-07-30T20:34:25.984Z,98994.44
2022-07-30T20:36:56.607Z,99003.00
2022-07-30T20:39:25.312Z,99025.31
2022-07-30T20:42:07.910Z,99043.44
2022-07-30T20:44:38.015Z,99069.59
2022-07-30T20:49:56.604Z,99106.28
2022-07-30T20:52:24.785Z,99127.91
2022-07-30T20:54:52.937Z,99143.72
2022-07-30T20:57:57.258Z,99157.94
2022-07-30T21:00:10.464Z,99180.03
2022-07-30T21:02:42.076Z,99209.72
2022-07-30T21:05:18.024Z,99220.22
2022-07-30T21:07:52.898Z,99236.41
2022-07-30T21:10:23.739Z,99215.75
2022-07-30T21:13:03.033Z,99250.97
2022-07-30T21:15:33.234Z,99254.50
2022-07-30T21:18:03.892Z,99264.91
2022-07-30T21:20:32.909Z,99264.56
2022-07-30T21:23:10.148Z,99268.97
2022-07-30T21:26:02.095Z,99259.81
2022-07-30T21:28:28.492Z,99251.81
2022-07-30T21:30:57.395Z,99269.06
2022-07-30T21:33:31.707Z,99263.63
2022-07-30T21:36:00.292Z,99258.09
2022-07-30T21:38:28.774Z,99261.41
2022-07-30T21:41:00.351Z,99262.78
2022-07-30T21:43:30.556Z,99255.13
2022-07-30T21:46:03.794Z,99256.94
2022-07-30T21:48:36.107Z,99270.44
2022-07-30T21:51:04.510Z,99274.84
2022-07-30T21:53:46.049Z,99275.16
2022-07-30T21:56:16.338Z,99267.44
2022-07-30T21:58:46.038Z,99268.88
2022-07-30T22:01:21.830Z,99271.47
2022-07-30T22:04:04.502Z,99269.38
2022-07-30T22:06:38.529Z,99281.78
2022-07-30T22:09:18.974Z,99272.03
2022-07-30T22:14:48.745Z,99274.47
2022-07-30T22:17:23.670Z,99282.34
2022-07-30T22:20:08.653Z,99275.63
2022-07-30T22:22:40.182Z,99282.81
2022-07-30T22:25:10.143Z,99273.97
2022-07-30T22:27:40.163Z,99284.22
2022-07-30T22:30:26.397Z,99280.19
2022-07-30T22:32:54.661Z,99283.41
2022-07-30T22:35:33.405Z,99276.53
2022-07-30T22:38:02.963Z,99264.69
2022-07-30T22:40:31.249Z,99254.88
2022-07-30T22:42:59.714Z,99256.41
2022-07-30T22:45:46.657Z,99246.31
2022-07-30T22:48:20.709Z,99245.91
2022-07-30T22:50:55.693Z,99243.69
2022-07-30T22:54:02.947Z,99235.72
2022-07-30T22:56:15.376Z,99231.72
2022-07-30T22:58:44.893Z,99225.19
2022-07-30T23:01:16.808Z,99227.63
2022-07-30T23:03:45.216Z,99226.75
2022-07-30T23:06:17.669Z,99220.88
2022-07-30T23:08:48.808Z,99217.34
2022-07-30T23:11:16.974Z,99209.06
2022-07-30T23:12:19.584Z,99091.66
2022-07-30T23:12:28.379Z,99272.56
2022-07-30T23:13:45.117Z,99190.72
2022-07-30T23:16:13.373Z,99178.84
2022-07-30T23:18:41.555Z,99166.69
2022-07-30T23:21:10.027Z,99157.31
2022-07-30T23:23:40.147Z,99128.44
2022-07-30T23:26:08.977Z,99121.03
2022-07-30T23:28:37.826Z,99112.09
2022-07-30T23:31:07.278Z,99110.84
2022-07-30T23:33:35.391Z,99129.09
2022-07-30T23:36:06.165Z,99142.59
2022-07-30T23:38:34.529Z,99144.56
2022-07-30T23:41:05.861Z,99113.97
2022-07-30T23:43:34.020Z,99107.59
2022-07-30T23:46:02.308Z,99105.38
2022-07-30T23:48:31.721Z,99101.94
2022-07-30T23:51:00.058Z,99092.19
2022-07-30T23:53:28.275Z,99095.41
2022-07-30T23:55:56.430Z,99106.53
2022-07-30T23:58:26.248Z,99087.44
